createdAt,value
2019-02-27T00:02:41.940Z,62.81
2019-02-27T00:07:44.355Z,63.29
2019-02-27T00:12:46.422Z,63.44
2019-02-27T00:17:51.162Z,63.34
2019-02-27T00:22:52.944Z,63.59
2019-02-27T00:27:55.124Z,64.15
2019-02-27T00:32:57.376Z,64.16
2019-02-27T00:37:59.495Z,64.84
2019-02-27T00:43:01.618Z,65.22
2019-02-27T00:48:04.045Z,65.91
2019-02-27T00:53:06.527Z,65.52
2019-02-27T00:58:08.641Z,66.14
2019-02-27T01:03:11.259Z,65.47
2019-02-27T01:08:13.391Z,65.76
2019-02-27T01:13:15.526Z,66.27
2019-02-27T01:18:17.579Z,65.87
2019-02-27T01:23:19.739Z,65.85
2019-02-27T01:28:22.537Z,65.91
2019-02-27T01:33:24.597Z,66.27
2019-02-27T01:38:26.659Z,66.46
2019-02-27T01:43:28.798Z,66.47
2019-02-27T01:48:30.946Z,66.49
2019-02-27T01:53:33.042Z,66.73
2019-02-27T01:58:35.030Z,67.32
2019-02-27T02:03:37.185Z,66.93
2019-02-27T02:08:39.382Z,67.00
2019-02-27T02:14:20.963Z,67.09
2019-02-27T02:19:59.672Z,68.18
2019-02-27T02:25:29.006Z,68.05
2019-02-27T02:31:18.666Z,68.97
2019-02-27T02:36:51.862Z,69.02
2019-02-27T02:42:17.961Z,67.51
2019-02-27T02:47:43.750Z,67.77
2019-02-27T02:53:40.038Z,68.05
2019-02-27T02:59:26.239Z,68.26
2019-02-27T03:05:00.621Z,67.50
2019-02-27T03:10:26.842Z,66.40
2019-02-27T03:15:46.901Z,66.49
2019-02-27T03:21:11.114Z,67.29
2019-02-27T03:26:22.181Z,67.23
2019-02-27T03:32:07.515Z,67.53
2019-02-27T03:37:36.807Z,67.22
2019-02-27T03:43:20.004Z,66.95
2019-02-27T03:49:02.980Z,67.26
2019-02-27T03:54:21.385Z,66.95
2019-02-27T04:00:00.463Z,66.50
2019-02-27T04:05:46.279Z,66.86
2019-02-27T04:10:48.616Z,66.78
2019-02-27T04:15:53.798Z,66.89
2019-02-27T04:20:55.629Z,66.45
2019-02-27T04:25:57.827Z,66.68
2019-02-27T04:30:59.963Z,66.58
2019-02-27T04:36:02.099Z,66.65
2019-02-27T04:41:04.260Z,66.25
2019-02-27T04:46:06.326Z,66.78
2019-02-27T04:51:08.909Z,67.27
2019-02-27T04:56:10.981Z,67.34
2019-02-27T05:01:13.115Z,67.09
2019-02-27T05:06:15.414Z,67.42
2019-02-27T05:11:17.653Z,67.76
2019-02-27T05:16:19.659Z,68.61
2019-02-27T05:21:22.034Z,68.69
2019-02-27T05:26:27.105Z,68.53
2019-02-27T05:31:28.333Z,68.87
2019-02-27T05:36:31.736Z,69.01
2019-02-27T05:41:34.564Z,69.60
2019-02-27T05:46:38.457Z,70.43
2019-02-27T05:51:41.347Z,69.70
2019-02-27T05:56:43.484Z,69.86
2019-02-27T06:01:46.485Z,69.67
2019-02-27T06:06:48.880Z,69.77
2019-02-27T06:11:51.074Z,69.92
2019-02-27T06:16:53.290Z,69.10
2019-02-27T06:21:56.277Z,68.27
2019-02-27T06:26:59.061Z,69.00
2019-02-27T06:32:01.299Z,69.81
2019-02-27T06:37:03.666Z,69.17
2019-02-27T06:42:06.011Z,69.02
2019-02-27T06:47:08.252Z,69.34
2019-02-27T06:52:10.483Z,69.81
2019-02-27T06:57:13.066Z,70.29
2019-02-27T07:02:15.497Z,69.43
2019-02-27T07:07:17.644Z,68.52
2019-02-27T07:12:21.910Z,66.82
2019-02-27T07:17:23.644Z,66.18
2019-02-27T07:22:26.103Z,65.09
2019-02-27T07:27:31.204Z,64.19
2019-02-27T07:32:34.298Z,64.41
2019-02-27T07:37:36.382Z,63.27
2019-02-27T07:42:38.495Z,61.84
2019-02-27T07:47:40.552Z,60.79
2019-02-27T07:52:42.638Z,59.28
2019-02-27T07:57:44.757Z,58.87
2019-02-27T08:02:47.019Z,57.74
2019-02-27T08:07:49.923Z,56.11
2019-02-27T08:12:55.515Z,56.41
2019-02-27T08:17:57.983Z,56.78
2019-02-27T08:23:00.226Z,56.48
2019-02-27T08:28:02.364Z,56.39
2019-02-27T08:33:08.220Z,56.65
2019-02-27T08:38:10.248Z,57.26
2019-02-27T08:43:12.462Z,57.88
2019-02-27T08:48:17.110Z,57.85
2019-02-27T08:53:19.022Z,58.39
2019-02-27T08:58:21.495Z,57.92
2019-02-27T09:03:23.626Z,57.47
2019-02-27T09:08:25.694Z,57.11
2019-02-27T09:13:27.799Z,56.92
2019-02-27T09:18:29.978Z,55.54
2019-02-27T09:23:32.285Z,55.05
2019-02-27T09:28:34.338Z,54.61
2019-02-27T09:33:39.061Z,53.48
2019-02-27T09:38:40.391Z,52.61
2019-02-27T09:43:42.444Z,52.21
2019-02-27T09:48:44.462Z,52.20
2019-02-27T09:53:46.924Z,52.10
2019-02-27T09:58:49.018Z,50.99
2019-02-27T10:03:51.976Z,50.34
2019-02-27T10:08:56.497Z,49.46
2019-02-27T10:13:59.108Z,48.74
2019-02-27T10:19:01.204Z,48.85
2019-02-27T10:24:04.855Z,48.87
2019-02-27T10:29:07.441Z,47.52
2019-02-27T10:34:09.491Z,46.16
2019-02-27T10:39:11.616Z,47.56
2019-02-27T10:44:14.011Z,46.89
2019-02-27T10:49:16.069Z,46.73
2019-02-27T10:54:18.092Z,45.75
2019-02-27T10:59:22.242Z,45.54
2019-02-27T11:04:24.305Z,45.82
2019-02-27T11:09:27.851Z,44.68
2019-02-27T11:14:31.976Z,44.58
2019-02-27T11:19:34.873Z,42.77
2019-02-27T11:24:37.314Z,42.10
2019-02-27T11:29:39.458Z,41.71
2019-02-27T11:34:41.624Z,41.62
2019-02-27T11:39:43.723Z,41.62
2019-02-27T11:44:49.418Z,40.34
2019-02-27T11:49:49.780Z,41.71
2019-02-27T11:54:51.885Z,39.92
2019-02-27T11:59:53.947Z,39.14
2019-02-27T12:04:56.679Z,35.37
2019-02-27T12:09:58.835Z,35.58
2019-02-27T12:15:01.335Z,35.58
2019-02-27T12:20:04.036Z,35.74
2019-02-27T12:25:07.117Z,33.87
2019-02-27T12:30:14.500Z,35.25
2019-02-27T12:35:27.462Z,35.23
2019-02-27T12:40:29.653Z,37.20
2019-02-27T12:45:31.785Z,34.49
2019-02-27T12:50:34.022Z,34.19
2019-02-27T12:55:36.481Z,33.58
2019-02-27T13:00:39.988Z,34.60
2019-02-27T13:05:43.141Z,31.60
2019-02-27T13:10:45.265Z,31.36
2019-02-27T13:15:47.321Z,31.21
2019-02-27T13:20:49.443Z,30.50
2019-02-27T13:25:51.724Z,30.69
2019-02-27T13:30:53.870Z,28.62
2019-02-27T13:35:56.816Z,31.55
2019-02-27T13:40:59.947Z,30.56
2019-02-27T13:46:02.018Z,32.30
2019-02-27T13:51:04.334Z,32.74
2019-02-27T13:56:06.484Z,34.70
2019-02-27T14:01:08.839Z,34.84
2019-02-27T14:06:11.046Z,33.06
2019-02-27T14:11:13.149Z,30.97
2019-02-27T14:16:15.280Z,27.80
2019-02-27T14:21:17.328Z,30.98
2019-02-27T14:26:19.484Z,31.22
2019-02-27T14:31:21.556Z,31.00
2019-02-27T14:36:23.702Z,32.21
2019-02-27T14:41:25.774Z,30.45
2019-02-27T14:46:27.792Z,32.83
2019-02-27T14:51:29.899Z,30.32
2019-02-27T14:56:32.226Z,31.81
2019-02-27T15:01:34.462Z,25.48
2019-02-27T15:06:36.583Z,14.75
2019-02-27T15:11:38.659Z,11.66
2019-02-27T15:16:40.915Z,20.71
2019-02-27T15:21:43.909Z,25.78
2019-02-27T15:26:50.377Z,22.04
2019-02-27T15:31:52.147Z,22.34
2019-02-27T15:36:55.822Z,23.28
2019-02-27T15:41:57.860Z,23.74
2019-02-27T15:46:59.993Z,23.16
2019-02-27T15:52:06.425Z,24.28
2019-02-27T15:57:06.080Z,24.40
2019-02-27T16:02:08.214Z,27.22
2019-02-27T16:07:11.218Z,26.28
2019-02-27T16:12:14.208Z,26.42
2019-02-27T16:17:16.259Z,26.32
2019-02-27T16:22:18.380Z,27.68
2019-02-27T16:27:20.495Z,28.23
2019-02-27T16:32:22.712Z,28.00
2019-02-27T16:37:24.763Z,29.05
2019-02-27T16:42:28.561Z,30.39
2019-02-27T16:47:32.290Z,30.46
2019-02-27T16:52:34.743Z,27.79
2019-02-27T16:57:36.814Z,30.81
2019-02-27T17:02:39.058Z,29.56
2019-02-27T17:07:41.125Z,29.51
2019-02-27T17:12:43.210Z,31.16
2019-02-27T17:17:45.249Z,31.16
2019-02-27T17:22:47.365Z,30.36
2019-02-27T17:27:51.208Z,28.45
2019-02-27T17:32:53.794Z,28.45
2019-02-27T17:37:56.106Z,31.79
2019-02-27T17:42:58.432Z,29.34
2019-02-27T17:48:00.591Z,33.06
2019-02-27T17:53:02.719Z,31.92
2019-02-27T17:58:04.849Z,33.19
2019-02-27T18:03:07.079Z,33.36
2019-02-27T18:08:09.112Z,33.57
2019-02-27T18:13:11.497Z,33.13
2019-02-27T18:18:13.745Z,34.40
2019-02-27T18:23:15.919Z,35.04
2019-02-27T18:28:17.939Z,36.46
2019-02-27T18:33:20.016Z,37.40
2019-02-27T18:38:27.576Z,37.84
2019-02-27T18:43:27.235Z,38.26
2019-02-27T18:48:31.541Z,39.05
2019-02-27T18:53:33.907Z,39.67
2019-02-27T18:58:36.219Z,39.81
2019-02-27T19:03:38.328Z,39.96
2019-02-27T19:08:40.386Z,39.81
2019-02-27T19:13:42.429Z,39.80
2019-02-27T19:18:44.655Z,40.45
2019-02-27T19:23:49.541Z,40.40
2019-02-27T19:28:50.859Z,37.04
2019-02-27T19:33:52.935Z,37.28
2019-02-27T19:38:55.044Z,38.69
2019-02-27T19:43:57.227Z,39.57
2019-02-27T19:49:00.876Z,38.63
2019-02-27T19:54:04.185Z,39.38
2019-02-27T19:59:07.414Z,40.32
2019-02-27T20:04:10.224Z,40.78
2019-02-27T20:09:20.745Z,41.31
2019-02-27T20:14:23.158Z,41.56
2019-02-27T20:19:28.240Z,41.78
2019-02-27T20:24:29.318Z,42.20
2019-02-27T20:29:31.441Z,41.77
2019-02-27T20:34:33.506Z,42.23
2019-02-27T20:39:36.113Z,42.73
2019-02-27T20:44:38.780Z,43.20
2019-02-27T20:49:40.971Z,43.63
2019-02-27T20:54:43.021Z,44.43
2019-02-27T20:59:45.117Z,44.49
2019-02-27T21:04:47.282Z,45.38
2019-02-27T21:09:49.384Z,45.79
2019-02-27T21:14:51.474Z,46.17
2019-02-27T21:19:54.172Z,47.14
2019-02-27T21:24:56.343Z,47.70
2019-02-27T21:29:58.449Z,46.80
2019-02-27T21:35:00.684Z,47.20
2019-02-27T21:40:03.457Z,47.76
2019-02-27T21:45:07.711Z,47.92
2019-02-27T21:50:12.024Z,48.01
2019-02-27T21:55:14.196Z,48.23
2019-02-27T22:00:20.246Z,48.38
2019-02-27T22:05:22.389Z,48.61
2019-02-27T22:10:24.444Z,49.44
2019-02-27T22:15:27.212Z,49.50
2019-02-27T22:20:29.400Z,49.90
2019-02-27T22:25:31.455Z,50.03
2019-02-27T22:30:33.783Z,50.68
2019-02-27T22:35:37.844Z,50.99
2019-02-27T22:40:39.840Z,51.06
2019-02-27T22:45:43.966Z,51.73
2019-02-27T22:50:46.048Z,51.17
2019-02-27T22:55:48.129Z,51.74
2019-02-27T23:01:14.989Z,52.04
2019-02-27T23:06:17.032Z,52.55
2019-02-27T23:11:19.136Z,53.08
2019-02-27T23:16:22.023Z,53.33
2019-02-27T23:21:26.601Z,53.27
2019-02-27T23:26:28.581Z,53.30
2019-02-27T23:31:30.757Z,53.46
2019-02-27T23:36:32.859Z,54.10
2019-02-27T23:41:35.013Z,54.21
2019-02-27T23:46:37.122Z,54.80
2019-02-27T23:51:39.242Z,55.28
2019-02-27T23:56:41.299Z,55.76
